Time;durP1;ratioP1;P1;durP2;ratioP2;P2;SDS_P1;SDS_P2;PMS_P1;PMS_P2;Temp;Humidity;BMP_temperature;BMP_pressure;BME280_temperature;BME280_humidity;BME280_pressure;Samples;Min_cycle;Max_cycle;Signal;HPM_P1;HPM_P2
2022/06/25 00:00:09;;;;;;;5.07;4.18;;;17.30;99.90;;;;;;4746291;30;20147;-89
2022/06/25 00:02:41;;;;;;;5.57;4.20;;;17.20;99.90;;;;;;4750151;30;20490;-89
2022/06/25 00:05:28;;;;;;;5.38;4.68;;;17.20;99.90;;;;;;4738832;30;20052;-89
2022/06/25 00:08:01;;;;;;;5.43;4.53;;;17.20;99.90;;;;;;4752737;30;20059;-88
2022/06/25 00:10:27;;;;;;;5.53;4.18;;;17.10;99.90;;;;;;4743162;30;20060;-88
2022/06/25 00:12:55;;;;;;;5.22;3.92;;;17.10;99.90;;;;;;4751243;30;20048;-88
2022/06/25 00:15:21;;;;;;;4.70;3.90;;;17.10;99.90;;;;;;4731496;30;20121;-89
2022/06/25 00:17:58;;;;;;;;;;;;;;;;;;;;;
2022/06/25 00:20:26;;;;;;;6.53;4.35;;;17.00;99.90;;;;;;4741331;30;20422;-89
2022/06/25 00:22:52;;;;;;;4.85;4.18;;;16.90;99.90;;;;;;4749691;30;20063;-87
2022/06/25 00:25:20;;;;;;;5.57;4.50;;;16.90;99.90;;;;;;4752999;30;20055;-88
2022/06/25 00:27:52;;;;;;;4.97;4.28;;;16.80;99.90;;;;;;4768999;30;20086;-88
2022/06/25 00:30:20;;;;;;;5.40;4.40;;;16.80;99.90;;;;;;4768000;30;20059;-89
2022/06/25 00:32:46;;;;;;;5.35;4.07;;;16.80;99.90;;;;;;4743931;30;20060;-87
2022/06/25 00:35:14;;;;;;;5.55;3.80;;;16.70;99.90;;;;;;4751414;30;20070;-88
2022/06/25 00:37:45;;;;;;;4.45;3.90;;;16.70;99.90;;;;;;4749727;30;20063;-88
2022/06/25 00:40:15;;;;;;;5.82;3.90;;;16.70;99.90;;;;;;4751082;30;20098;-88
2022/06/25 00:42:47;;;;;;;4.97;3.63;;;16.70;99.90;;;;;;4756274;30;20059;-89
2022/06/25 00:45:15;;;;;;;4.50;3.80;;;16.70;99.90;;;;;;4768576;30;20051;-90
2022/06/25 00:47:42;;;;;;;4.63;3.92;;;16.70;99.90;;;;;;4768857;30;20524;-89
2022/06/25 00:50:10;;;;;;;5.20;3.22;;;16.60;99.90;;;;;;4752161;30;20056;-88
2022/06/25 00:52:54;;;;;;;4.50;3.90;;;16.70;99.90;;;;;;4734588;30;20060;-89
2022/06/25 00:55:49;;;;;;;4.03;3.38;;;16.50;99.90;;;;;;4752738;30;20052;-89
2022/06/25 00:58:22;;;;;;;6.70;3.90;;;16.30;99.90;;;;;;4755387;30;20062;-88
2022/06/25 01:00:49;;;;;;;4.50;3.72;;;16.50;99.90;;;;;;4771728;30;20217;-88
2022/06/25 01:07:01;;;;;;;5.93;4.43;;;16.50;99.90;;;;;;4759826;30;20047;-88
2022/06/25 01:09:30;;;;;;;7.18;4.32;;;16.40;99.90;;;;;;4771511;30;20075;-89
2022/06/25 01:11:58;;;;;;;5.10;3.70;;;16.30;99.90;;;;;;4755886;30;20582;-88
2022/06/25 01:14:38;;;;;;;6.68;4.28;;;16.40;99.90;;;;;;4747536;30;20064;-89
2022/06/25 01:17:13;;;;;;;7.13;3.88;;;16.30;99.90;;;;;;4755851;30;20063;-90
2022/06/25 01:19:45;;;;;;;5.17;4.33;;;16.40;99.90;;;;;;4754772;24;20127;-88
2022/06/25 01:22:33;;;;;;;5.30;3.88;;;16.30;99.90;;;;;;4714140;30;20065;-89
2022/06/25 01:25:19;;;;;;;6.55;4.40;;;16.30;99.90;;;;;;4687103;30;20061;-90
2022/06/25 01:27:57;;;;;;;4.57;3.65;;;16.30;99.90;;;;;;4702905;30;20503;-88
2022/06/25 01:30:47;;;;;;;5.10;3.42;;;16.30;99.90;;;;;;4688675;30;20064;-88
2022/06/25 01:33:55;;;;;;;;;;;;;;;;;;;;;
2022/06/25 01:36:35;;;;;;;5.68;4.25;;;16.20;99.90;;;;;;4631629;30;20105;-88
2022/06/25 01:40:12;;;;;;;;;;;;;;;;;;;;;
2022/06/25 01:43:08;;;;;;;4.93;3.85;;;16.10;99.90;;;;;;4549474;31;20140;-88
2022/06/25 01:56:17;;;;;;;6.93;4.28;;;15.90;99.90;;;;;;4531083;31;20084;-87
2022/06/25 01:59:20;;;;;;;5.63;4.20;;;16.00;99.90;;;;;;4523339;31;20064;-88
2022/06/25 02:02:23;;;;;;;6.03;4.25;;;16.00;99.90;;;;;;4518139;31;20153;-89
2022/06/25 02:08:50;;;;;;;4.25;3.35;;;16.10;99.90;;;;;;4524841;31;20056;-88
2022/06/25 02:11:18;;;;;;;4.22;3.40;;;15.90;99.90;;;;;;4518444;31;20068;-88
2022/06/25 02:13:47;;;;;;;4.85;3.38;;;16.00;99.90;;;;;;4528654;31;20049;-88
2022/06/25 02:16:14;;;;;;;3.55;3.10;;;15.90;99.90;;;;;;4549728;31;20137;-87
2022/06/25 02:18:43;;;;;;;4.28;3.30;;;15.90;99.90;;;;;;4598798;31;20063;-89
2022/06/25 02:21:23;;;;;;;4.15;3.30;;;15.90;99.90;;;;;;4639723;30;20421;-89
2022/06/25 02:24:04;;;;;;;;;;;;;;;;;;;;;
2022/06/25 02:26:35;;;;;;;3.97;3.08;;;15.90;99.90;;;;;;4634028;30;20401;-90
2022/06/25 02:29:37;;;;;;;5.32;3.78;;;15.80;99.90;;;;;;4694174;30;20066;-89
2022/06/25 02:32:41;;;;;;;5.70;3.53;;;15.80;99.90;;;;;;4701526;30;20068;-89
2022/06/25 02:35:18;;;;;;;5.03;3.28;;;15.70;99.90;;;;;;4695364;30;20057;-88
2022/06/25 02:37:50;;;;;;;4.53;3.65;;;15.80;99.90;;;;;;4701022;30;20068;-87
2022/06/25 02:40:41;;;;;;;6.13;3.55;;;15.70;99.90;;;;;;4710101;30;20066;-89
2022/06/25 02:43:37;;;;;;;;;;;;;;;;;;;;;
2022/06/25 02:46:11;;;;;;;5.45;4.25;;;15.60;99.90;;;;;;4715368;30;20059;-89
2022/06/25 02:48:46;;;;;;;5.60;3.60;;;15.60;99.90;;;;;;4717458;30;20069;-89
2022/06/25 02:51:14;;;;;;;5.30;3.65;;;15.50;99.90;;;;;;4704278;30;20061;-87
2022/06/25 02:53:45;;;;;;;4.20;3.05;;;15.50;99.90;;;;;;4717606;30;20061;-88
2022/06/25 02:59:12;;;;;;;3.42;2.83;;;15.40;99.90;;;;;;4698426;30;20078;-87
2022/06/25 03:02:19;;;;;;;3.65;2.90;;;15.40;99.90;;;;;;4709105;30;20140;-89
2022/06/25 03:05:35;;;;;;;4.18;3.00;;;15.40;99.90;;;;;;4706209;30;20061;-89
2022/06/25 03:08:08;;;;;;;3.15;2.78;;;15.40;99.90;;;;;;4646803;30;20073;-90
2022/06/25 03:11:00;;;;;;;4.57;3.13;;;15.70;99.90;;;;;;4657219;30;20062;-88
2022/06/25 03:13:31;;;;;;;4.32;3.22;;;15.50;99.90;;;;;;4643173;30;20069;-88
2022/06/25 03:16:10;;;;;;;3.67;2.70;;;15.30;99.90;;;;;;4635765;30;20058;-88
2022/06/25 03:18:49;;;;;;;3.30;2.22;;;15.50;99.90;;;;;;4643795;30;20494;-88
2022/06/25 03:21:18;;;;;;;4.10;2.50;;;15.50;99.90;;;;;;4641599;30;20063;-88
2022/06/25 03:23:46;;;;;;;4.90;2.22;;;15.40;99.90;;;;;;4658332;30;20085;-88
2022/06/25 03:26:26;;;;;;;3.47;2.30;;;15.40;99.90;;;;;;4661935;30;20108;-89
2022/06/25 03:29:15;;;;;;;3.00;2.08;;;15.50;99.90;;;;;;4663755;30;20057;-87
2022/06/25 03:32:03;;;;;;;2.95;2.65;;;15.50;99.90;;;;;;4657954;30;20524;-88
2022/06/25 03:38:45;;;;;;;3.72;2.72;;;15.60;99.90;;;;;;4663615;30;20085;-88
2022/06/25 03:44:24;;;;;;;2.78;2.00;;;15.40;99.90;;;;;;4671545;30;20054;-87
2022/06/25 03:46:53;;;;;;;3.05;2.42;;;15.40;99.90;;;;;;4704496;30;20087;-88
2022/06/25 03:49:24;;;;;;;2.60;1.90;;;15.40;99.90;;;;;;4693382;30;20068;-87
2022/06/25 03:51:56;;;;;;;3.35;2.60;;;15.40;99.90;;;;;;4710635;30;20061;-87
2022/06/25 03:54:53;;;;;;;3.25;2.28;;;15.50;99.90;;;;;;4711771;30;20525;-88
2022/06/25 03:57:29;;;;;;;2.38;1.65;;;15.50;99.90;;;;;;4715234;30;20115;-88
2022/06/25 04:00:06;;;;;;;3.60;1.80;;;15.50;99.90;;;;;;4715900;30;20052;-88
2022/06/25 04:02:33;;;;;;;2.28;1.70;;;15.40;99.90;;;;;;4694504;30;20061;-89
2022/06/25 04:05:01;;;;;;;2.25;1.85;;;15.60;99.90;;;;;;4694144;30;20061;-87
2022/06/25 04:07:27;;;;;;;1.90;1.60;;;15.60;99.90;;;;;;4700654;30;20202;-87
2022/06/25 04:09:54;;;;;;;1.95;1.27;;;15.70;99.90;;;;;;4711652;30;20045;-88
2022/06/25 04:12:22;;;;;;;2.70;1.85;;;15.70;99.90;;;;;;4710088;30;20496;-87
2022/06/25 04:15:00;;;;;;;2.40;1.73;;;16.10;99.90;;;;;;4696986;30;20061;-88
2022/06/25 04:17:33;;;;;;;2.25;1.38;;;15.80;99.90;;;;;;4714011;30;20100;-89
2022/06/25 04:20:02;;;;;;;2.28;1.80;;;15.80;99.90;;;;;;4716070;30;20057;-87
2022/06/25 04:22:28;;;;;;;3.92;1.73;;;15.80;99.90;;;;;;4699233;30;20071;-88
2022/06/25 04:25:07;;;;;;;2.85;1.48;;;15.80;99.90;;;;;;4685685;30;20053;-88
2022/06/25 04:30:45;;;;;;;2.08;1.65;;;15.90;99.90;;;;;;4712015;30;20131;-88
2022/06/25 04:33:24;;;;;;;1.70;1.30;;;16.00;99.90;;;;;;4688992;30;20049;-88
2022/06/25 04:35:50;;;;;;;2.17;1.50;;;16.50;99.90;;;;;;4696668;30;20061;-88
2022/06/25 04:38:18;;;;;;;2.13;1.10;;;16.20;99.90;;;;;;4710964;30;20056;-88
2022/06/25 04:40:56;;;;;;;2.05;1.75;;;16.30;99.90;;;;;;4684834;30;20127;-87
2022/06/25 04:43:32;;;;;;;;;;;;;;;;;;;;;
2022/06/25 04:46:17;;;;;;;2.30;1.20;;;16.40;99.90;;;;;;4713707;30;20049;-88
2022/06/25 04:48:48;;;;;;;1.60;1.00;;;16.50;99.90;;;;;;4711222;30;20061;-88
2022/06/25 04:51:17;;;;;;;1.48;1.00;;;16.60;99.90;;;;;;4691005;30;20520;-89
2022/06/25 04:53:57;;;;;;;2.38;1.42;;;16.80;99.90;;;;;;4698282;30;20064;-88
2022/06/25 04:56:47;;;;;;;2.60;1.52;;;16.70;99.90;;;;;;4715609;30;20065;-88
2022/06/25 04:59:20;;;;;;;2.42;1.50;;;16.80;99.90;;;;;;4679352;30;20061;-87
2022/06/25 05:01:46;;;;;;;1.90;1.30;;;16.90;99.90;;;;;;4693780;30;20148;-88
2022/06/25 05:04:14;;;;;;;1.60;1.15;;;17.00;99.90;;;;;;4715656;30;20136;-88
2022/06/25 05:06:44;;;;;;;2.50;1.45;;;17.10;99.90;;;;;;4692343;30;20120;-89
2022/06/25 05:09:12;;;;;;;1.98;1.10;;;17.10;99.90;;;;;;4709962;30;20049;-88
2022/06/25 05:11:37;;;;;;;2.25;1.10;;;17.40;99.90;;;;;;4700514;30;20087;-89
2022/06/25 05:14:06;;;;;;;1.40;1.00;;;17.30;99.90;;;;;;4714838;30;20069;-88
2022/06/25 05:16:35;;;;;;;1.42;1.00;;;17.40;99.90;;;;;;4712320;30;20123;-87
2022/06/25 05:19:01;;;;;;;1.80;1.10;;;17.40;99.90;;;;;;4692860;30;20075;-88
2022/06/25 05:21:30;;;;;;;1.90;1.38;;;17.60;99.90;;;;;;4699784;30;20518;-87
2022/06/25 05:23:58;;;;;;;2.92;1.15;;;17.70;99.90;;;;;;4698969;30;20061;-89
2022/06/25 05:26:27;;;;;;;3.08;1.33;;;17.80;99.90;;;;;;4685757;30;20064;-88
2022/06/25 05:28:53;;;;;;;2.42;1.65;;;17.90;99.90;;;;;;4696633;30;20046;-89
2022/06/25 05:31:30;;;;;;;2.35;1.42;;;18.00;99.90;;;;;;4697347;30;20089;-88
2022/06/25 05:34:12;;;;;;;;;;;18.10;99.90;;;;;;4698322;30;20105;-88
2022/06/25 05:37:05;;;;;;;7.55;3.10;;;18.00;99.90;;;;;;4715146;30;20433;-89
2022/06/25 05:39:56;;;;;;;;;;;;;;;;;;;;;
2022/06/25 05:42:37;;;;;;;2.80;2.03;;;18.50;99.90;;;;;;4704492;30;20057;-88
2022/06/25 05:45:25;;;;;;;;;;;;;;;;;;;;;
2022/06/25 05:48:11;;;;;;;;;;;;;;;;;;;;;
2022/06/25 05:50:48;;;;;;;3.38;2.60;;;18.70;99.90;;;;;;4741739;24;20052;-88
2022/06/25 05:53:29;;;;;;;6.07;2.65;;;18.90;99.90;;;;;;4753158;30;20049;-88
2022/06/25 05:56:00;;;;;;;3.75;2.58;;;19.00;99.90;;;;;;4737883;30;20060;-87
2022/06/25 05:58:28;;;;;;;3.63;2.55;;;19.10;99.90;;;;;;4731944;30;20059;-87
2022/06/25 06:00:57;;;;;;;2.67;2.15;;;19.20;99.90;;;;;;4752280;30;20064;-88
2022/06/25 06:03:29;;;;;;;7.63;3.60;;;19.20;99.90;;;;;;4715959;30;20125;-89
2022/06/25 06:07:07;;;;;;;;;;;;;;;;;;;;;
2022/06/25 06:10:21;;;;;;;;;;;;;;;;;;;;;
2022/06/25 06:13:23;;;;;;;3.50;2.15;;;19.60;99.90;;;;;;4720201;30;20049;-90
2022/06/25 06:15:52;;;;;;;3.03;1.67;;;19.70;99.90;;;;;;4743957;30;20053;-91
2022/06/25 06:35:22;;;;;;;3.20;2.25;;;20.60;99.90;;;;;;5701152;24;20631;-89
2022/06/25 06:37:59;;;;;;;2.75;1.85;;;20.70;99.90;;;;;;4692039;30;20068;-88
2022/06/25 06:57:12;;;;;;;2.65;1.50;;;21.50;99.90;;;;;;4717763;30;20049;-87
2022/06/25 06:59:58;;;;;;;;;;;;;;;;;;;;;
2022/06/25 07:05:32;;;;;;;2.10;1.30;;;21.90;99.90;;;;;;4645339;30;20091;-89
2022/06/25 07:25:26;;;;;;;;;;;;;;;;;;;;;
2022/06/25 07:28:39;;;;;;;;;;;;;;;;;;;;;
2022/06/25 07:31:20;;;;;;;1.60;1.08;;;22.80;99.90;;;;;;4608440;31;20052;-88
2022/06/25 07:33:59;;;;;;;3.08;1.20;;;23.10;99.90;;;;;;4629331;31;20069;-90
2022/06/25 07:36:24;;;;;;;2.20;0.95;;;23.20;99.90;;;;;;4608153;31;20143;-88
2022/06/25 07:38:52;;;;;;;1.38;0.90;;;23.40;99.90;;;;;;4599676;31;20153;-87
2022/06/25 07:41:19;;;;;;;4.40;1.42;;;23.50;99.90;;;;;;4627434;31;20145;-89
2022/06/25 07:43:45;;;;;;;0.90;0.68;;;23.70;99.90;;;;;;4615711;31;20086;-91
2022/06/25 07:46:16;;;;;;;2.80;1.00;;;23.80;99.90;;;;;;4615627;31;20070;-89
2022/06/25 07:48:52;;;;;;;;;;;;;;;;;;;;;
2022/06/25 08:37:16;;;;;;;1.27;0.70;;;25.50;99.90;;;;;;4729939;24;20084;-90
2022/06/25 08:39:42;;;;;;;1.52;0.70;;;25.70;99.90;;;;;;4727998;30;20053;-90
2022/06/25 08:42:31;;;;;;;1.40;0.63;;;25.70;99.90;;;;;;4720932;30;20400;-93
2022/06/25 08:44:57;;;;;;;0.65;0.50;;;25.80;99.90;;;;;;4733326;30;20085;-92
2022/06/25 08:47:23;;;;;;;3.88;0.50;;;26.00;99.90;;;;;;4711743;30;20075;-91
2022/06/25 08:49:48;;;;;;;1.90;0.60;;;26.10;99.90;;;;;;4717073;30;20060;-87
2022/06/25 08:52:18;;;;;;;1.52;0.60;;;26.20;99.90;;;;;;4717439;30;20131;-87
2022/06/25 08:54:45;;;;;;;0.65;0.45;;;26.40;99.90;;;;;;4730501;30;20057;-88
2022/06/25 08:57:11;;;;;;;2.83;0.60;;;26.40;99.90;;;;;;4727507;30;20056;-89
2022/06/25 08:59:37;;;;;;;0.77;0.45;;;26.50;99.90;;;;;;4717554;30;20435;-88
2022/06/25 09:02:03;;;;;;;1.08;0.40;;;26.50;99.90;;;;;;4732501;30;20520;-87
2022/06/25 09:04:29;;;;;;;2.35;0.60;;;26.40;99.90;;;;;;4729146;30;20149;-89
2022/06/25 09:07:15;;;;;;;1.00;0.38;;;26.20;99.90;;;;;;4709155;30;20049;-89
2022/06/25 09:09:54;;;;;;;1.45;0.40;;;26.10;99.90;;;;;;4712844;30;20064;-87
2022/06/25 09:12:32;;;;;;;;;;;;;;;;;;;;;
2022/06/25 09:14:58;;;;;;;0.80;0.50;;;26.00;99.90;;;;;;4725429;30;20069;-88
2022/06/25 09:19:57;;;;;;;2.80;0.57;;;26.20;99.90;;;;;;4731667;30;20458;-89
2022/06/25 09:22:26;;;;;;;1.80;0.65;;;26.30;99.90;;;;;;4714346;30;20143;-90
2022/06/25 09:25:02;;;;;;;3.80;0.68;;;26.10;99.90;;;;;;4720689;30;20118;-87
2022/06/25 09:27:36;;;;;;;1.10;0.50;;;26.10;99.90;;;;;;4703785;30;20507;-87
2022/06/25 09:30:16;;;;;;;1.20;0.40;;;26.30;99.90;;;;;;4720775;30;20419;-88
2022/06/25 09:32:49;;;;;;;1.77;0.52;;;26.50;99.90;;;;;;4720690;30;20064;-87
2022/06/25 09:35:27;;;;;;;1.38;0.45;;;26.30;99.90;;;;;;4710546;30;20065;-91
2022/06/25 09:37:59;;;;;;;0.98;0.40;;;26.20;99.90;;;;;;4715131;30;20056;-89
2022/06/25 09:40:25;;;;;;;2.15;0.50;;;26.20;99.90;;;;;;4720623;30;20049;-90
2022/06/25 09:42:51;;;;;;;2.40;0.40;;;26.10;99.90;;;;;;4721360;30;20139;-90
2022/06/25 09:45:17;;;;;;;2.00;0.50;;;26.20;99.90;;;;;;4737320;30;20140;-89
2022/06/25 09:47:44;;;;;;;1.17;0.40;;;26.20;99.90;;;;;;4707463;30;20060;-88
2022/06/25 09:50:18;;;;;;;1.40;0.38;;;26.00;99.90;;;;;;4715259;30;20126;-87
2022/06/25 09:52:54;;;;;;;2.55;0.60;;;26.00;99.90;;;;;;4740060;30;20151;-86
2022/06/25 09:55:23;;;;;;;2.58;0.40;;;25.90;99.90;;;;;;4716647;30;20499;-86
2022/06/25 09:57:50;;;;;;;2.15;0.50;;;26.00;99.90;;;;;;4714408;30;20399;-86
2022/06/25 10:00:22;;;;;;;0.47;0.30;;;26.20;99.90;;;;;;4735530;30;20562;-88
2022/06/25 10:02:50;;;;;;;0.40;0.30;;;26.30;99.90;;;;;;4720041;30;20143;-86
2022/06/25 10:05:29;;;;;;;1.13;0.40;;;26.40;99.90;;;;;;4740045;30;20049;-86
2022/06/25 10:08:01;;;;;;;0.40;0.20;;;26.30;99.90;;;;;;4733371;30;20089;-88
2022/06/25 10:10:52;;;;;;;0.98;0.30;;;26.20;99.90;;;;;;4714422;30;20065;-89
2022/06/25 10:13:39;;;;;;;;;;;;;;;;;;;;;
2022/06/25 10:16:36;;;;;;;0.43;0.30;;;26.30;99.90;;;;;;4665350;30;20181;-89
2022/06/25 10:19:23;;;;;;;;;;;;;;;;;;;;;
2022/06/25 10:37:25;;;;;;;1.60;0.30;;;26.70;99.90;;;;;;4701062;30;20057;-87
2022/06/25 10:39:55;;;;;;;1.30;0.57;;;26.70;99.90;;;;;;4688402;30;20107;-86
2022/06/25 10:45:14;;;;;;;0.30;0.20;;;26.80;99.90;;;;;;4717127;30;20159;-84
2022/06/25 10:47:50;;;;;;;0.30;0.20;;;26.90;99.90;;;;;;4722296;30;20543;-84
2022/06/25 10:50:21;;;;;;;0.50;0.20;;;26.90;99.90;;;;;;4717850;30;20180;-84
2022/06/25 10:55:38;;;;;;;0.30;0.10;;;27.50;99.90;;;;;;4717733;30;20097;-85
2022/06/25 10:58:10;;;;;;;1.27;0.30;;;27.70;99.90;;;;;;4720497;30;20412;-84
2022/06/25 11:01:01;;;;;;;1.88;0.45;;;27.90;99.90;;;;;;4706051;30;20065;-84
2022/06/25 11:03:31;;;;;;;0.80;0.30;;;27.90;99.90;;;;;;4665918;30;20109;-84
2022/06/25 11:05:59;;;;;;;2.63;0.30;;;27.70;99.90;;;;;;4654480;30;20604;-85
2022/06/25 11:08:36;;;;;;;1.10;0.30;;;27.40;99.90;;;;;;4634884;30;20482;-85
2022/06/25 11:11:03;;;;;;;0.25;0.13;;;27.10;99.90;;;;;;4654111;30;20059;-85
2022/06/25 11:13:30;;;;;;;0.28;0.22;;;26.90;99.90;;;;;;4654505;30;20063;-84
2022/06/25 11:15:56;;;;;;;0.35;0.20;;;26.70;99.90;;;;;;4643445;30;20071;-85
2022/06/25 11:18:21;;;;;;;0.30;0.15;;;26.50;99.90;;;;;;4648304;30;20119;-85
2022/06/25 11:20:47;;;;;;;3.05;0.40;;;26.40;99.90;;;;;;4646352;30;20062;-84
2022/06/25 11:23:15;;;;;;;0.75;0.20;;;26.40;99.90;;;;;;4654322;30;20145;-84
2022/06/25 11:28:49;;;;;;;0.60;0.20;;;25.80;99.90;;;;;;4648157;30;20059;-85
2022/06/25 11:31:15;;;;;;;0.47;0.30;;;25.60;99.90;;;;;;4656863;30;20133;-86
2022/06/25 11:33:43;;;;;;;1.42;0.47;;;25.50;99.90;;;;;;4657212;30;20058;-88
2022/06/25 11:36:10;;;;;;;0.70;0.30;;;25.30;99.90;;;;;;4640397;30;20145;-86
2022/06/25 11:38:44;;;;;;;0.93;0.40;;;25.20;99.90;;;;;;4633452;30;20394;-88
2022/06/25 11:41:26;;;;;;;1.52;0.30;;;25.00;99.90;;;;;;4692832;30;20049;-88
2022/06/25 11:43:52;;;;;;;1.10;0.40;;;24.90;99.90;;;;;;4701745;30;20069;-87
2022/06/25 11:46:19;;;;;;;1.25;0.43;;;24.80;99.90;;;;;;4717183;30;20053;-87
2022/06/25 11:48:50;;;;;;;1.40;0.43;;;24.60;99.90;;;;;;4717683;30;20061;-88
2022/06/25 11:51:25;;;;;;;1.88;0.30;;;24.50;99.90;;;;;;4717066;30;20064;-86
2022/06/25 11:53:54;;;;;;;0.77;0.30;;;24.40;99.90;;;;;;4723002;30;20096;-86
2022/06/25 11:56:21;;;;;;;1.55;0.40;;;24.30;99.90;;;;;;4726041;30;20123;-84
2022/06/25 11:58:47;;;;;;;0.68;0.20;;;24.10;99.90;;;;;;4721836;30;20063;-84
2022/06/25 12:01:13;;;;;;;0.93;0.40;;;24.10;99.90;;;;;;4720567;30;20052;-84
2022/06/25 12:03:39;;;;;;;1.08;0.30;;;24.10;99.90;;;;;;4701388;30;20140;-84
2022/06/25 12:06:05;;;;;;;2.05;0.40;;;24.30;99.90;;;;;;4717511;30;20084;-86
2022/06/25 12:08:32;;;;;;;0.50;0.20;;;24.50;99.90;;;;;;4717083;30;20056;-86
2022/06/25 12:11:00;;;;;;;2.03;0.50;;;24.90;99.90;;;;;;4701101;30;20085;-83
2022/06/25 12:13:30;;;;;;;2.40;0.40;;;25.50;99.90;;;;;;4716939;30;20061;-86
2022/06/25 12:16:01;;;;;;;1.02;0.30;;;26.00;99.90;;;;;;4723526;30;20057;-85
2022/06/25 12:18:38;;;;;;;0.68;0.22;;;26.30;99.90;;;;;;4717429;30;20513;-84
2022/06/25 12:21:26;;;;;;;0.82;0.32;;;26.20;99.90;;;;;;4723451;30;20510;-85
2022/06/25 12:23:56;;;;;;;0.88;0.30;;;26.00;99.90;;;;;;4700581;30;20100;-83
2022/06/25 12:26:31;;;;;;;0.32;0.20;;;25.80;99.90;;;;;;4700938;30;20537;-85
2022/06/25 12:29:13;;;;;;;0.52;0.30;;;25.70;99.90;;;;;;4700992;30;20098;-84
2022/06/25 12:31:40;;;;;;;1.15;0.30;;;25.60;99.90;;;;;;4716358;30;20133;-84
2022/06/25 12:34:07;;;;;;;0.73;0.30;;;25.50;99.90;;;;;;4715582;30;20065;-84
2022/06/25 12:36:40;;;;;;;3.40;0.30;;;25.30;99.90;;;;;;4700473;30;20057;-83
2022/06/25 12:39:57;;;;;;;0.63;0.20;;;25.30;99.90;;;;;;4716575;30;20531;-84
2022/06/25 12:42:23;;;;;;;2.15;0.20;;;25.10;99.90;;;;;;4662782;30;20055;-83
2022/06/25 12:44:49;;;;;;;1.02;0.20;;;24.90;99.90;;;;;;4648639;30;20109;-84
2022/06/25 12:47:17;;;;;;;0.50;0.20;;;24.80;99.90;;;;;;4677042;30;20085;-85
2022/06/25 12:52:55;;;;;;;5.30;0.70;;;25.00;99.90;;;;;;4764463;25;20061;-83
2022/06/25 12:55:23;;;;;;;1.85;0.50;;;24.70;99.90;;;;;;4748650;30;20048;-84
2022/06/25 12:57:50;;;;;;;3.50;0.60;;;24.40;99.90;;;;;;4737936;30;20095;-83
2022/06/25 13:00:24;;;;;;;2.35;0.60;;;24.00;99.90;;;;;;4748493;30;20056;-83
2022/06/25 13:02:50;;;;;;;1.65;0.60;;;23.80;99.90;;;;;;4753793;30;20137;-82
2022/06/25 13:05:17;;;;;;;2.97;0.70;;;23.50;99.90;;;;;;4754443;30;20097;-82
2022/06/25 13:07:44;;;;;;;2.42;0.65;;;23.40;99.90;;;;;;4738083;30;20063;-83
2022/06/25 13:10:10;;;;;;;3.05;0.60;;;23.40;99.90;;;;;;4738628;30;20060;-83
2022/06/25 13:12:36;;;;;;;2.83;0.80;;;23.30;99.90;;;;;;4754174;30;20055;-83
2022/06/25 13:15:03;;;;;;;4.70;1.40;;;23.10;99.90;;;;;;4754078;30;20056;-83
2022/06/25 13:17:29;;;;;;;2.75;0.90;;;23.20;99.90;;;;;;4754280;30;20414;-83
2022/06/25 13:19:54;;;;;;;5.55;1.38;;;23.00;99.90;;;;;;4753837;30;20064;-83
2022/06/25 13:22:21;;;;;;;1.48;0.73;;;22.90;99.90;;;;;;4753735;30;20429;-85
2022/06/25 13:24:47;;;;;;;2.22;0.85;;;22.80;99.90;;;;;;4754381;30;20503;-87
2022/06/25 13:27:12;;;;;;;4.18;1.05;;;22.90;99.90;;;;;;4754009;30;20060;-86
2022/06/25 13:29:42;;;;;;;2.22;1.05;;;23.00;99.90;;;;;;4738265;30;20114;-86
2022/06/25 13:32:08;;;;;;;2.15;0.60;;;22.90;99.90;;;;;;4737662;30;20068;-85
2022/06/25 13:34:34;;;;;;;2.65;0.90;;;22.90;99.90;;;;;;4738197;30;20131;-83
2022/06/25 13:37:00;;;;;;;2.38;0.60;;;22.90;99.90;;;;;;4733828;30;20138;-85
2022/06/25 13:39:25;;;;;;;2.60;0.73;;;22.90;99.90;;;;;;4739136;30;20097;-86
2022/06/25 13:41:51;;;;;;;2.35;0.50;;;23.00;99.90;;;;;;4757907;30;20059;-90
2022/06/25 13:44:19;;;;;;;6.20;1.25;;;23.10;99.90;;;;;;4754896;30;20052;-87
2022/06/25 13:46:45;;;;;;;6.68;1.60;;;23.20;99.90;;;;;;4733343;30;20552;-90
2022/06/25 13:49:10;;;;;;;9.85;2.40;;;23.30;99.90;;;;;;4740017;30;20060;-90
2022/06/25 13:51:38;;;;;;;3.72;1.10;;;23.20;99.90;;;;;;4738358;30;20060;-90
2022/06/25 13:54:03;;;;;;;2.25;0.70;;;23.20;99.90;;;;;;4739546;30;20059;-92
2022/06/25 13:56:32;;;;;;;5.63;1.40;;;23.20;99.90;;;;;;4750722;30;20438;-92
2022/06/25 13:58:57;;;;;;;5.35;1.48;;;23.20;99.90;;;;;;4755288;30;20056;-90
2022/06/25 14:01:23;;;;;;;2.63;0.80;;;23.10;99.90;;;;;;4752828;30;20063;-92
2022/06/25 14:03:49;;;;;;;5.47;0.80;;;23.00;99.90;;;;;;4753515;30;20059;-91
2022/06/25 14:06:39;;;;;;;2.50;0.60;;;23.10;99.90;;;;;;4749320;30;20049;-89
2022/06/25 14:15:36;;;;;;;4.32;1.00;;;23.50;99.90;;;;;;5035589;24;20566;-89
2022/06/25 14:21:54;;;;;;;3.17;1.27;;;23.70;99.90;;;;;;4672141;30;20099;-89
2022/06/25 14:27:22;;;;;;;2.63;1.02;;;24.10;99.90;;;;;;4689762;30;20054;-89
2022/06/25 14:30:14;;;;;;;2.03;1.27;;;24.20;99.90;;;;;;4685237;30;20578;-87
2022/06/25 14:33:42;;;;;;;2.10;0.63;;;24.20;99.90;;;;;;4656927;30;20058;-88
2022/06/25 14:43:08;;;;;;;2.78;0.80;;;25.50;99.90;;;;;;4681539;30;20058;-88
2022/06/25 14:46:08;;;;;;;2.30;0.60;;;25.70;99.90;;;;;;4688247;30;20097;-89
2022/06/25 14:48:37;;;;;;;1.23;0.52;;;26.00;99.90;;;;;;4683508;30;20073;-90
2022/06/25 14:51:02;;;;;;;0.77;0.40;;;26.40;99.90;;;;;;4684013;30;20575;-91
2022/06/25 14:53:46;;;;;;;2.05;0.85;;;26.60;99.90;;;;;;4689624;30;20046;-92
2022/06/25 15:02:52;;;;;;;1.77;0.40;;;27.00;99.90;;;;;;3795851;28;20092;-92
2022/06/25 16:26:25;;;;;;;3.10;0.70;;;24.20;99.90;;;;;;4928773;24;20147;-94
2022/06/25 17:03:35;;;;;;;6.00;1.15;;;23.20;99.90;;;;;;5554395;24;20057;-90
2022/06/25 17:08:37;;;;;;;1.75;1.02;;;23.10;99.90;;;;;;4767780;24;20133;-88
2022/06/25 17:11:21;;;;;;;4.70;1.50;;;23.00;99.90;;;;;;4732150;30;20055;-91
2022/06/25 17:14:13;;;;;;;2.23;0.80;;;23.00;99.90;;;;;;4719439;30;20471;-89
2022/06/25 17:16:39;;;;;;;1.65;0.73;;;23.20;99.90;;;;;;4712975;30;20653;-91
2022/06/25 17:19:04;;;;;;;4.38;0.80;;;23.00;99.90;;;;;;4747323;30;20117;-89
2022/06/25 17:21:30;;;;;;;2.10;0.60;;;22.70;99.90;;;;;;4747279;24;20072;-92
2022/06/25 17:23:57;;;;;;;3.30;0.90;;;22.60;99.90;;;;;;4734683;30;20136;-92
2022/06/25 17:26:26;;;;;;;3.80;1.30;;;22.60;99.90;;;;;;4717767;30;20071;-91
2022/06/25 17:42:02;;;;;;;4.03;0.80;;;22.20;99.90;;;;;;4745445;24;20064;-88
2022/06/25 17:59:43;;;;;;;;;;;;;;;;;;;;;
2022/06/25 18:48:48;;;;;;;2.63;1.10;;;21.50;99.90;;;;;;4753043;24;20519;-90
2022/06/25 18:54:55;;;;;;;5.53;1.88;;;21.30;99.90;;;;;;4735084;30;20065;-90
2022/06/25 19:00:32;;;;;;;4.63;1.90;;;21.10;99.90;;;;;;4770133;24;20053;-85
2022/06/25 19:03:07;;;;;;;3.20;1.40;;;21.00;99.90;;;;;;4714638;30;20070;-87
2022/06/25 20:35:08;;;;;;;5.07;2.72;;;19.40;99.90;;;;;;4801494;24;20072;-91
2022/06/25 21:09:08;;;;;;;5.22;3.70;;;19.00;99.90;;;;;;4699780;30;20065;-87
2022/06/25 21:11:34;;;;;;;5.53;3.60;;;19.00;99.90;;;;;;4718545;30;20423;-87
2022/06/25 21:14:01;;;;;;;6.75;4.53;;;19.00;99.90;;;;;;4703359;30;20065;-87
2022/06/25 21:16:26;;;;;;;6.10;4.18;;;18.90;99.90;;;;;;4696233;30;20064;-87
2022/06/25 21:18:52;;;;;;;6.55;3.88;;;18.90;99.90;;;;;;4703017;30;20427;-87
2022/06/25 21:21:21;;;;;;;5.25;4.07;;;18.90;99.90;;;;;;4703521;30;20045;-87
2022/06/25 21:23:46;;;;;;;6.82;4.22;;;18.80;99.90;;;;;;4703340;30;20068;-86
2022/06/25 21:26:12;;;;;;;6.10;3.95;;;18.80;99.90;;;;;;4702977;30;20144;-86
2022/06/25 21:28:38;;;;;;;6.43;3.90;;;18.80;99.90;;;;;;4689198;30;20065;-87
2022/06/25 21:31:04;;;;;;;7.38;4.30;;;18.80;99.90;;;;;;4684990;30;20183;-87
2022/06/25 21:33:29;;;;;;;9.13;4.85;;;18.80;99.90;;;;;;4703604;30;20061;-86
2022/06/25 21:35:55;;;;;;;6.57;4.53;;;18.80;99.90;;;;;;4715282;30;20534;-87
2022/06/25 21:38:21;;;;;;;7.75;5.15;;;18.80;99.90;;;;;;4688755;30;20140;-86
2022/06/25 21:40:47;;;;;;;6.82;4.30;;;18.80;99.90;;;;;;4703653;30;20053;-87
2022/06/25 21:43:13;;;;;;;7.10;4.75;;;18.80;99.90;;;;;;4702984;30;20065;-87
2022/06/25 21:45:38;;;;;;;7.50;5.40;;;18.80;99.90;;;;;;4703433;30;20127;-88
2022/06/25 21:48:04;;;;;;;6.68;4.78;;;18.80;99.90;;;;;;4703098;30;20076;-86
2022/06/25 21:50:35;;;;;;;8.23;5.80;;;18.80;99.90;;;;;;4697869;30;20053;-87
2022/06/25 21:53:01;;;;;;;9.70;6.15;;;18.80;99.90;;;;;;4682711;30;20069;-85
2022/06/25 21:55:27;;;;;;;7.65;5.10;;;18.80;99.90;;;;;;4696664;30;20053;-87
2022/06/25 21:57:53;;;;;;;8.95;4.88;;;18.80;99.90;;;;;;4703461;30;20148;-87
2022/06/25 22:00:21;;;;;;;8.07;5.65;;;18.80;99.90;;;;;;4702633;30;20139;-86
2022/06/25 22:02:48;;;;;;;9.55;5.07;;;18.80;99.90;;;;;;4674232;30;20066;-86
2022/06/25 22:05:14;;;;;;;7.80;4.50;;;18.80;99.90;;;;;;4678567;30;20097;-86
2022/06/25 22:07:41;;;;;;;8.27;5.50;;;18.80;99.90;;;;;;4681326;30;20128;-87
2022/06/25 22:10:08;;;;;;;8.95;5.28;;;18.80;99.90;;;;;;4683071;30;20124;-87